Time;durP1;ratioP1;P1;durP2;ratioP2;P2;SDS_P1;SDS_P2;PMS_P1;PMS_P2;Temp;Humidity;BMP_temperature;BMP_pressure;BME280_temperature;BME280_humidity;BME280_pressure;Samples;Min_cycle;Max_cycle;Signal;HPM_P1;HPM_P2
2020/12/18 00:01:55;;;;;;;19.27;15.23;;;5.70;99.90;;;;;;4952581;28;20208;-65
2020/12/18 00:04:20;;;;;;;19.57;16.70;;;5.80;99.90;;;;;;4952493;28;20188;-65
2020/12/18 00:06:46;;;;;;;18.90;17.00;;;5.80;99.90;;;;;;4952378;28;20455;-65
2020/12/18 00:09:12;;;;;;;20.33;17.13;;;5.80;99.90;;;;;;4952122;28;20275;-65
2020/12/18 00:11:37;;;;;;;19.93;17.80;;;5.80;99.90;;;;;;4952565;28;20185;-65
2020/12/18 00:14:03;;;;;;;21.77;18.13;;;5.90;99.90;;;;;;4952944;28;20902;-65
2020/12/18 00:16:32;;;;;;;20.37;17.90;;;5.90;99.90;;;;;;4948429;29;20831;-65
2020/12/18 00:18:57;;;;;;;22.73;17.40;;;5.90;99.90;;;;;;4952083;28;20232;-65
2020/12/18 00:21:23;;;;;;;17.80;15.93;;;5.80;99.90;;;;;;4952850;28;21225;-65
2020/12/18 00:23:50;;;;;;;16.23;14.07;;;5.80;99.90;;;;;;4952598;28;20181;-65
2020/12/18 00:26:16;;;;;;;16.73;14.87;;;5.80;99.90;;;;;;4952823;28;20436;-65
2020/12/18 00:28:42;;;;;;;17.17;15.37;;;5.80;99.90;;;;;;4951622;28;20511;-65
2020/12/18 00:31:07;;;;;;;17.60;15.43;;;5.80;99.90;;;;;;4952483;28;20441;-65
2020/12/18 00:33:33;;;;;;;16.73;15.00;;;5.80;99.90;;;;;;4951883;28;20447;-65
2020/12/18 00:35:58;;;;;;;19.50;16.43;;;5.80;99.90;;;;;;4952637;28;20192;-65
2020/12/18 00:38:24;;;;;;;16.60;14.27;;;5.70;99.90;;;;;;4951626;28;20224;-65
2020/12/18 00:40:50;;;;;;;17.53;15.20;;;5.70;99.90;;;;;;4952371;28;20667;-65
2020/12/18 00:43:15;;;;;;;17.63;13.40;;;5.70;99.90;;;;;;4951975;28;20252;-65
2020/12/18 00:45:43;;;;;;;16.80;15.07;;;5.60;99.90;;;;;;4952303;28;20181;-65
2020/12/18 00:48:08;;;;;;;15.50;13.90;;;5.60;99.90;;;;;;4951400;28;20193;-65
2020/12/18 00:50:34;;;;;;;15.23;13.40;;;5.60;99.90;;;;;;4952165;28;20524;-65
2020/12/18 00:52:59;;;;;;;18.03;15.37;;;5.60;99.90;;;;;;4952492;28;20783;-65
2020/12/18 00:55:25;;;;;;;16.10;14.50;;;5.50;99.90;;;;;;4951733;28;20181;-65
2020/12/18 00:57:50;;;;;;;20.40;14.97;;;5.60;99.90;;;;;;4950903;28;20267;-65
2020/12/18 01:00:16;;;;;;;17.37;15.57;;;5.60;99.90;;;;;;4955290;28;20177;-65
2020/12/18 01:02:42;;;;;;;15.20;13.60;;;5.60;99.90;;;;;;4955977;28;20177;-65
2020/12/18 01:05:07;;;;;;;17.20;14.57;;;5.50;99.90;;;;;;4956030;28;20658;-65
2020/12/18 01:07:33;;;;;;;18.20;16.10;;;5.50;99.90;;;;;;4955769;28;20228;-65
2020/12/18 01:09:58;;;;;;;17.50;14.73;;;5.50;99.90;;;;;;4955570;28;20604;-65
2020/12/18 01:12:24;;;;;;;18.07;16.17;;;5.40;99.90;;;;;;4955707;28;20548;-65
2020/12/18 01:14:50;;;;;;;17.30;15.03;;;5.40;99.90;;;;;;4955619;28;20181;-65
2020/12/18 01:17:15;;;;;;;16.37;14.23;;;5.40;99.90;;;;;;4955382;28;20228;-65
2020/12/18 01:19:41;;;;;;;16.77;13.90;;;5.40;99.90;;;;;;4954274;28;20173;-65
2020/12/18 01:22:06;;;;;;;15.50;13.90;;;5.40;99.90;;;;;;4955132;28;20251;-65
2020/12/18 01:24:32;;;;;;;17.00;15.17;;;5.30;99.90;;;;;;4955267;28;20177;-65
2020/12/18 01:26:58;;;;;;;15.97;14.33;;;5.20;99.90;;;;;;4955484;28;20228;-65
2020/12/18 01:29:23;;;;;;;14.33;12.67;;;5.20;99.90;;;;;;4954764;28;20181;-65
2020/12/18 01:31:49;;;;;;;16.80;13.63;;;5.30;99.90;;;;;;4955294;28;20531;-65
2020/12/18 01:34:14;;;;;;;14.93;13.33;;;5.30;99.90;;;;;;4955448;28;20193;-65
2020/12/18 01:36:40;;;;;;;15.20;13.47;;;5.40;99.90;;;;;;4955587;28;20189;-65
2020/12/18 01:39:06;;;;;;;16.00;13.00;;;5.20;99.90;;;;;;4954853;28;20188;-65
2020/12/18 01:41:32;;;;;;;13.77;12.33;;;5.20;99.90;;;;;;4954879;28;20288;-65
2020/12/18 01:43:58;;;;;;;15.70;14.10;;;5.20;99.90;;;;;;4955267;28;20782;-65
2020/12/18 01:46:27;;;;;;;16.20;14.60;;;5.20;99.90;;;;;;4955262;28;20515;-65
2020/12/18 01:48:53;;;;;;;18.03;13.70;;;5.30;99.90;;;;;;4954946;28;20210;-65
2020/12/18 01:51:19;;;;;;;17.47;15.57;;;5.30;99.90;;;;;;4955060;28;20527;-65
2020/12/18 01:53:44;;;;;;;18.30;14.17;;;5.40;99.90;;;;;;4954788;28;20546;-65
2020/12/18 01:56:11;;;;;;;14.93;13.33;;;5.50;99.90;;;;;;4954776;28;20236;-65
2020/12/18 01:58:39;;;;;;;15.47;13.27;;;5.50;99.90;;;;;;4954551;28;20215;-65
2020/12/18 02:01:06;;;;;;;13.83;12.47;;;5.50;99.90;;;;;;4954873;28;20487;-65
2020/12/18 02:03:33;;;;;;;14.90;13.20;;;5.40;99.90;;;;;;4954713;28;20439;-65
2020/12/18 02:06:02;;;;;;;16.57;13.63;;;5.40;99.90;;;;;;4954719;29;20443;-65
2020/12/18 02:08:30;;;;;;;13.77;12.43;;;5.40;99.90;;;;;;4954315;28;20802;-65
2020/12/18 02:10:56;;;;;;;13.80;12.40;;;5.50;99.90;;;;;;4953748;28;20459;-65
2020/12/18 02:13:23;;;;;;;15.37;13.77;;;5.50;99.90;;;;;;4955033;28;20951;-65
2020/12/18 02:15:51;;;;;;;14.77;13.17;;;5.60;99.90;;;;;;4954357;28;20930;-65
2020/12/18 02:18:26;;;;;;;14.70;13.10;;;5.60;99.90;;;;;;4954239;29;20467;-65
2020/12/18 02:20:53;;;;;;;18.07;13.23;;;5.60;99.90;;;;;;4954360;28;20463;-65
2020/12/18 02:23:18;;;;;;;14.97;13.47;;;5.60;99.90;;;;;;4954941;28;20433;-65
2020/12/18 02:25:46;;;;;;;18.77;15.27;;;5.70;99.90;;;;;;4954776;28;20906;-65
2020/12/18 02:28:12;;;;;;;15.67;13.40;;;5.70;99.90;;;;;;4954334;28;20718;-65
2020/12/18 02:30:40;;;;;;;16.40;14.70;;;5.80;99.90;;;;;;4955158;28;20447;-65
2020/12/18 02:33:09;;;;;;;17.87;15.03;;;5.80;99.90;;;;;;4954094;28;20825;-65
2020/12/18 02:35:35;;;;;;;17.83;16.03;;;5.80;99.90;;;;;;4954482;28;20448;-65
2020/12/18 02:38:02;;;;;;;18.30;16.27;;;5.70;99.90;;;;;;4953268;28;20472;-65
2020/12/18 02:40:28;;;;;;;16.67;14.63;;;5.70;99.90;;;;;;4953597;29;20200;-65
2020/12/18 02:42:54;;;;;;;18.70;14.83;;;5.70;99.90;;;;;;4954338;28;20436;-65
2020/12/18 02:45:19;;;;;;;18.03;15.03;;;5.80;99.90;;;;;;4954549;28;20264;-65
2020/12/18 02:47:46;;;;;;;15.50;13.90;;;5.70;99.90;;;;;;4953990;28;20208;-65
2020/12/18 02:50:12;;;;;;;17.73;14.50;;;5.70;99.90;;;;;;4954421;28;20639;-65
2020/12/18 02:52:37;;;;;;;17.63;14.13;;;5.60;99.90;;;;;;4954392;28;20446;-65
2020/12/18 02:55:04;;;;;;;14.77;13.27;;;5.60;99.90;;;;;;4953930;28;20248;-65
2020/12/18 02:57:29;;;;;;;14.27;12.83;;;5.60;99.90;;;;;;4953816;28;20452;-65
2020/12/18 02:59:55;;;;;;;15.73;14.27;;;5.50;99.90;;;;;;4953296;28;20467;-65
2020/12/18 03:02:21;;;;;;;16.83;14.50;;;5.40;99.90;;;;;;4953744;28;20205;-65
2020/12/18 03:04:46;;;;;;;15.47;13.90;;;5.30;99.90;;;;;;4953771;28;20260;-65
2020/12/18 03:07:13;;;;;;;15.13;13.40;;;5.40;99.90;;;;;;4953786;28;20204;-65
2020/12/18 03:09:39;;;;;;;16.67;13.80;;;5.40;99.90;;;;;;4953192;28;20200;-65
2020/12/18 03:12:05;;;;;;;14.97;13.33;;;5.50;99.90;;;;;;4953679;28;20890;-65
2020/12/18 03:14:30;;;;;;;15.90;14.40;;;5.50;99.90;;;;;;4953680;28;20200;-65
2020/12/18 03:16:56;;;;;;;13.90;12.40;;;5.50;99.90;;;;;;4953427;28;20243;-65
2020/12/18 03:19:21;;;;;;;14.60;13.20;;;5.50;99.90;;;;;;4952384;28;20247;-65
2020/12/18 03:21:47;;;;;;;16.10;13.20;;;5.60;99.90;;;;;;4953430;28;20201;-65
2020/12/18 03:24:12;;;;;;;14.40;12.90;;;5.70;99.90;;;;;;4953421;28;20177;-65
2020/12/18 03:26:38;;;;;;;14.77;13.27;;;5.70;99.90;;;;;;4953236;28;20564;-65
2020/12/18 03:29:03;;;;;;;15.90;14.20;;;5.80;99.90;;;;;;4953096;28;20268;-65
2020/12/18 03:31:29;;;;;;;15.30;13.40;;;5.80;99.90;;;;;;4953240;28;20173;-65
2020/12/18 03:33:54;;;;;;;17.73;12.77;;;5.90;99.90;;;;;;4952963;28;20246;-65
2020/12/18 03:36:20;;;;;;;14.70;13.20;;;6.00;99.90;;;;;;4952298;28;20177;-65
2020/12/18 03:38:45;;;;;;;14.70;13.13;;;6.00;99.90;;;;;;4952610;28;20706;-65
2020/12/18 03:41:11;;;;;;;13.13;11.80;;;6.00;99.90;;;;;;4952913;28;20243;-65
2020/12/18 03:43:36;;;;;;;16.40;12.67;;;6.00;99.90;;;;;;4938127;29;20180;-65
2020/12/18 03:46:02;;;;;;;13.77;12.20;;;5.90;99.90;;;;;;4953401;28;20205;-65
2020/12/18 03:48:28;;;;;;;15.07;12.83;;;5.80;99.90;;;;;;4952620;28;20193;-65
2020/12/18 03:50:53;;;;;;;16.13;14.40;;;5.80;99.90;;;;;;4953025;28;20266;-65
2020/12/18 03:53:19;;;;;;;16.33;13.53;;;5.80;99.90;;;;;;4952904;28;20264;-65
2020/12/18 03:55:45;;;;;;;14.60;13.30;;;5.80;99.90;;;;;;4953085;28;20185;-65
2020/12/18 03:58:10;;;;;;;16.03;14.33;;;5.80;99.90;;;;;;4952564;28;20188;-65
2020/12/18 04:00:37;;;;;;;14.17;12.73;;;5.80;99.90;;;;;;4952677;28;20219;-65
2020/12/18 04:03:03;;;;;;;12.97;11.67;;;5.80;99.90;;;;;;4952487;28;20177;-65
2020/12/18 04:05:29;;;;;;;15.87;13.77;;;5.90;99.90;;;;;;4952996;28;20440;-65
2020/12/18 04:07:54;;;;;;;13.57;12.27;;;5.90;99.90;;;;;;4952474;28;20448;-65
2020/12/18 04:10:22;;;;;;;14.23;12.93;;;5.90;99.90;;;;;;4952605;28;20191;-65
2020/12/18 04:12:47;;;;;;;14.13;12.60;;;5.90;99.90;;;;;;4952925;28;20208;-65
2020/12/18 04:15:13;;;;;;;15.83;13.07;;;5.90;99.90;;;;;;4952787;28;20460;-65
2020/12/18 04:17:38;;;;;;;14.87;13.33;;;5.90;99.90;;;;;;4952390;28;20205;-65
2020/12/18 04:20:04;;;;;;;14.30;12.30;;;6.00;99.90;;;;;;4952525;28;20189;-65
2020/12/18 04:22:30;;;;;;;14.37;12.90;;;6.10;99.90;;;;;;4953090;28;20279;-65
2020/12/18 04:24:56;;;;;;;14.27;12.77;;;6.10;99.90;;;;;;4952848;28;20273;-65
2020/12/18 04:27:21;;;;;;;14.63;13.20;;;6.10;99.90;;;;;;4952481;28;20197;-65
2020/12/18 04:29:47;;;;;;;18.53;14.57;;;6.10;99.90;;;;;;4952035;28;20838;-65
2020/12/18 04:32:13;;;;;;;15.27;13.77;;;6.00;99.90;;;;;;4952357;28;20541;-65
2020/12/18 04:34:39;;;;;;;16.13;13.13;;;6.00;99.90;;;;;;4951917;28;20667;-65
2020/12/18 04:37:05;;;;;;;17.53;13.40;;;6.00;99.90;;;;;;4952367;28;20212;-65
2020/12/18 04:39:30;;;;;;;12.83;11.23;;;6.00;99.90;;;;;;4951773;28;20197;-65
2020/12/18 04:41:56;;;;;;;14.93;13.37;;;6.10;99.90;;;;;;4952075;28;20473;-65
2020/12/18 04:44:23;;;;;;;20.43;14.93;;;6.20;99.90;;;;;;4952592;28;20204;-65
2020/12/18 04:46:50;;;;;;;14.43;12.93;;;6.20;99.90;;;;;;4951906;28;20191;-65
2020/12/18 04:49:17;;;;;;;14.37;12.87;;;6.30;99.90;;;;;;4952128;28;20425;-65
2020/12/18 04:51:43;;;;;;;17.57;13.30;;;6.30;99.90;;;;;;4951996;28;20879;-65
2020/12/18 04:54:10;;;;;;;15.73;13.00;;;6.30;99.90;;;;;;4952139;28;20432;-65
2020/12/18 04:56:42;;;;;;;17.90;13.00;;;6.20;99.90;;;;;;4952185;28;20862;-65
2020/12/18 04:59:07;;;;;;;16.63;12.97;;;6.20;99.90;;;;;;4950982;28;20440;-65
2020/12/18 05:01:33;;;;;;;15.17;13.67;;;6.20;99.90;;;;;;4951854;28;20464;-65
2020/12/18 05:04:02;;;;;;;13.50;12.10;;;6.10;99.90;;;;;;4951954;28;20180;-65
2020/12/18 05:06:27;;;;;;;15.33;13.63;;;6.10;99.90;;;;;;4951881;28;20884;-65
2020/12/18 05:08:53;;;;;;;15.03;13.53;;;6.10;99.90;;;;;;4940376;29;20532;-65
2020/12/18 05:11:24;;;;;;;14.30;13.00;;;6.20;99.90;;;;;;4951692;28;20547;-65
2020/12/18 05:13:52;;;;;;;14.87;13.30;;;6.10;99.90;;;;;;4951650;28;20271;-65
2020/12/18 05:16:19;;;;;;;16.83;14.87;;;6.10;99.90;;;;;;4952177;28;20531;-65
2020/12/18 05:18:45;;;;;;;14.33;12.93;;;6.10;99.90;;;;;;4951435;28;20464;-65
2020/12/18 05:21:11;;;;;;;18.93;15.00;;;6.20;99.90;;;;;;4951512;28;20475;-65
2020/12/18 05:23:41;;;;;;;14.73;13.20;;;6.20;99.90;;;;;;4952174;28;20432;-65
2020/12/18 05:26:08;;;;;;;15.63;13.63;;;6.20;99.90;;;;;;4952274;28;20177;-65
2020/12/18 05:28:42;;;;;;;14.83;13.27;;;6.20;99.90;;;;;;4950859;28;20459;-65
2020/12/18 05:31:18;;;;;;;15.53;13.93;;;6.20;99.90;;;;;;4951784;28;20462;-65
2020/12/18 05:33:46;;;;;;;15.70;13.60;;;6.10;99.90;;;;;;4951641;28;20451;-65
2020/12/18 05:36:13;;;;;;;15.33;13.83;;;6.20;99.90;;;;;;4951888;28;20446;-65
2020/12/18 05:38:39;;;;;;;19.03;13.20;;;6.10;99.90;;;;;;4951376;28;20541;-65
2020/12/18 05:41:06;;;;;;;15.23;13.73;;;6.10;99.90;;;;;;4951829;28;20502;-65
2020/12/18 05:43:42;;;;;;;14.90;13.30;;;6.00;99.90;;;;;;4951668;28;20437;-65
2020/12/18 05:46:28;;;;;;;14.70;13.20;;;5.90;99.90;;;;;;4952990;28;20431;-66
2020/12/18 05:49:05;;;;;;;14.63;13.10;;;6.00;99.90;;;;;;4954598;29;20464;-66
2020/12/18 05:51:37;;;;;;;14.77;13.23;;;6.00;99.90;;;;;;4954935;28;20520;-66
2020/12/18 05:54:16;;;;;;;14.97;12.97;;;6.00;99.90;;;;;;4955350;28;20436;-66
2020/12/18 05:56:44;;;;;;;15.67;13.33;;;6.10;99.90;;;;;;4954187;28;20443;-66
2020/12/18 05:59:20;;;;;;;14.10;12.60;;;6.00;99.90;;;;;;4954796;28;20447;-66
2020/12/18 06:01:49;;;;;;;15.00;13.00;;;6.00;99.90;;;;;;4954679;28;20876;-68
2020/12/18 06:04:14;;;;;;;15.23;12.40;;;6.00;99.90;;;;;;4954712;28;20541;-66
2020/12/18 06:06:51;;;;;;;14.13;12.77;;;6.10;99.90;;;;;;4955142;28;20818;-66
2020/12/18 06:09:21;;;;;;;13.87;12.23;;;6.10;99.90;;;;;;4954776;28;20192;-66
2020/12/18 06:11:47;;;;;;;14.30;12.77;;;6.10;99.90;;;;;;4954911;28;20440;-66
2020/12/18 06:14:15;;;;;;;14.20;12.80;;;6.10;99.90;;;;;;4955027;28;20459;-66
2020/12/18 06:16:51;;;;;;;18.43;13.00;;;6.00;99.90;;;;;;4955081;28;20432;-65
2020/12/18 06:19:31;;;;;;;15.30;13.10;;;6.00;99.90;;;;;;4954724;28;20432;-67
2020/12/18 06:21:58;;;;;;;13.57;12.17;;;6.10;99.90;;;;;;4954778;28;20475;-66
2020/12/18 06:24:24;;;;;;;13.77;12.37;;;6.00;99.90;;;;;;4939613;29;20432;-67
2020/12/18 06:26:55;;;;;;;14.17;12.70;;;6.00;99.90;;;;;;4955849;28;20437;-67
2020/12/18 06:29:23;;;;;;;14.10;12.60;;;5.90;99.90;;;;;;4954914;28;20440;-65
2020/12/18 06:31:49;;;;;;;13.70;12.37;;;5.80;99.90;;;;;;4955142;28;20479;-66
2020/12/18 06:34:26;;;;;;;13.37;12.10;;;5.90;99.90;;;;;;4954601;28;20439;-66
2020/12/18 06:36:52;;;;;;;15.37;13.77;;;5.80;99.90;;;;;;4954597;28;20547;-67
2020/12/18 06:39:25;;;;;;;17.43;13.10;;;5.80;99.90;;;;;;4955649;28;20519;-67
2020/12/18 06:42:31;;;;;;;14.43;12.93;;;5.80;99.90;;;;;;4964828;28;20637;-66
2020/12/18 06:44:59;;;;;;;14.40;12.93;;;5.80;99.90;;;;;;4951711;28;20440;-66
2020/12/18 06:47:25;;;;;;;14.10;12.50;;;5.90;99.90;;;;;;4954841;28;20501;-65
2020/12/18 06:49:56;;;;;;;17.40;13.70;;;5.80;99.90;;;;;;4955986;28;20464;-66
2020/12/18 06:53:04;;;;;;;16.07;14.10;;;5.90;99.90;;;;;;4949964;28;20192;-66
2020/12/18 06:55:30;;;;;;;15.97;13.40;;;5.90;99.90;;;;;;4971548;28;20442;-65
2020/12/18 06:58:08;;;;;;;14.73;13.17;;;5.80;99.90;;;;;;4954799;28;20451;-66
2020/12/18 07:00:36;;;;;;;18.73;15.47;;;5.90;99.90;;;;;;4955836;28;20288;-66
2020/12/18 07:03:02;;;;;;;17.10;13.37;;;6.00;99.90;;;;;;4955105;28;20432;-65
2020/12/18 07:05:37;;;;;;;16.90;12.63;;;6.00;99.90;;;;;;4959486;28;20805;-66
2020/12/18 07:08:08;;;;;;;15.87;12.77;;;6.00;99.90;;;;;;4955294;28;20244;-66
2020/12/18 07:10:44;;;;;;;15.47;13.77;;;6.10;99.90;;;;;;4963004;28;20483;-66
2020/12/18 07:13:15;;;;;;;13.40;11.97;;;6.20;99.90;;;;;;4952813;28;20440;-66
2020/12/18 07:15:44;;;;;;;17.33;14.70;;;6.20;99.90;;;;;;4953118;28;20472;-66
2020/12/18 07:18:26;;;;;;;14.37;13.00;;;6.20;99.90;;;;;;4952712;28;20515;-67
2020/12/18 07:20:55;;;;;;;16.07;13.60;;;6.10;99.90;;;;;;4953280;28;21014;-66
2020/12/18 07:23:21;;;;;;;16.57;15.00;;;6.10;99.90;;;;;;4935530;29;20441;-66
2020/12/18 07:25:48;;;;;;;17.17;15.37;;;6.10;99.90;;;;;;4942941;28;20946;-66
2020/12/18 07:28:14;;;;;;;19.30;15.40;;;6.10;99.90;;;;;;4958484;28;21128;-66
2020/12/18 07:30:44;;;;;;;15.43;13.83;;;6.10;99.90;;;;;;4953143;28;20440;-66
2020/12/18 07:33:12;;;;;;;17.63;15.73;;;6.20;99.90;;;;;;4953346;28;20433;-66
2020/12/18 07:35:48;;;;;;;17.80;16.00;;;6.10;99.90;;;;;;4953386;28;20773;-66
2020/12/18 07:38:16;;;;;;;18.90;15.43;;;6.10;99.90;;;;;;4952904;28;21041;-66
2020/12/18 07:40:43;;;;;;;17.03;15.17;;;6.20;99.90;;;;;;4953421;28;20456;-65
2020/12/18 07:43:10;;;;;;;16.90;15.20;;;6.20;99.90;;;;;;4953628;28;20464;-66
2020/12/18 07:45:44;;;;;;;20.47;15.63;;;6.30;99.90;;;;;;4953018;28;20436;-66
2020/12/18 07:48:19;;;;;;;16.90;15.10;;;6.40;99.90;;;;;;4952975;28;20451;-65
2020/12/18 07:50:58;;;;;;;16.13;14.63;;;6.50;99.90;;;;;;4953657;28;20415;-66
2020/12/18 07:53:25;;;;;;;19.33;15.90;;;6.40;99.90;;;;;;4950800;28;20433;-66
2020/12/18 07:56:01;;;;;;;17.20;15.47;;;6.50;99.90;;;;;;4923008;28;20555;-66
2020/12/18 07:58:27;;;;;;;23.77;17.93;;;6.50;99.90;;;;;;4933739;29;20471;-69
2020/12/18 08:01:08;;;;;;;19.40;16.07;;;6.60;99.90;;;;;;4933140;29;20473;-69
2020/12/18 08:03:34;;;;;;;17.30;15.27;;;6.60;99.90;;;;;;4933330;29;20436;-68
2020/12/18 08:06:06;;;;;;;16.70;14.13;;;6.70;99.90;;;;;;4946196;29;20873;-69
2020/12/18 08:08:33;;;;;;;15.67;13.60;;;6.80;99.90;;;;;;4939827;28;20539;-69
2020/12/18 08:11:01;;;;;;;21.60;15.20;;;6.70;99.90;;;;;;4921984;29;20525;-68
2020/12/18 08:13:27;;;;;;;17.30;15.43;;;6.80;99.90;;;;;;4919036;29;20433;-68
2020/12/18 08:16:06;;;;;;;17.83;15.23;;;6.90;99.90;;;;;;4933061;29;20476;-67
2020/12/18 08:18:32;;;;;;;17.27;15.40;;;6.90;99.90;;;;;;4932148;29;20903;-68
2020/12/18 08:20:58;;;;;;;16.07;14.37;;;7.00;99.90;;;;;;4933769;29;20472;-68
2020/12/18 08:23:26;;;;;;;15.60;14.00;;;7.00;99.90;;;;;;4933274;29;20441;-68
2020/12/18 08:25:52;;;;;;;18.80;15.63;;;7.20;99.90;;;;;;4942057;29;20180;-68
2020/12/18 08:28:20;;;;;;;15.63;14.20;;;7.30;99.90;;;;;;4935594;28;20509;-69
2020/12/18 08:30:48;;;;;;;15.60;13.63;;;7.50;99.90;;;;;;4932323;29;20843;-68
2020/12/18 08:33:17;;;;;;;18.33;13.73;;;7.50;99.90;;;;;;4933273;29;20472;-68
2020/12/18 08:35:45;;;;;;;17.77;13.80;;;7.50;99.90;;;;;;4940867;28;20926;-68
2020/12/18 08:38:11;;;;;;;14.87;13.33;;;7.60;99.90;;;;;;4952209;28;20522;-69
2020/12/18 08:40:42;;;;;;;20.43;14.77;;;7.60;99.90;;;;;;4952182;28;20468;-68
2020/12/18 08:43:13;;;;;;;22.23;14.13;;;7.60;99.90;;;;;;4952398;28;20188;-69
2020/12/18 08:45:44;;;;;;;17.53;14.90;;;7.70;99.90;;;;;;4952013;28;20491;-68
2020/12/18 08:48:10;;;;;;;16.67;14.87;;;7.50;99.90;;;;;;4951458;28;20484;-68
2020/12/18 08:50:37;;;;;;;22.93;14.50;;;7.40;99.90;;;;;;4951624;28;20440;-65
2020/12/18 08:53:14;;;;;;;18.97;14.13;;;7.40;99.90;;;;;;4949265;28;20527;-69
2020/12/18 08:55:40;;;;;;;16.50;14.80;;;7.50;99.90;;;;;;4952198;28;20447;-65
2020/12/18 08:58:11;;;;;;;19.00;15.00;;;7.80;99.90;;;;;;4955183;28;20459;-68
2020/12/18 09:00:39;;;;;;;15.10;13.43;;;8.10;99.90;;;;;;4939207;28;20178;-68
2020/12/18 09:03:05;;;;;;;17.57;15.37;;;8.30;99.90;;;;;;4952240;28;20463;-68
2020/12/18 09:05:37;;;;;;;16.97;15.27;;;8.60;99.90;;;;;;4951976;28;20444;-68
2020/12/18 09:08:02;;;;;;;18.53;14.57;;;9.00;99.90;;;;;;4950410;28;20232;-68
2020/12/18 09:10:38;;;;;;;15.57;13.97;;;9.30;99.90;;;;;;4952005;29;20934;-67
2020/12/18 09:13:12;;;;;;;14.50;13.13;;;9.50;99.90;;;;;;4951562;28;20713;-68
2020/12/18 09:15:38;;;;;;;14.73;13.23;;;9.80;99.90;;;;;;4951808;28;20527;-67
2020/12/18 09:18:09;;;;;;;13.17;11.73;;;10.20;99.90;;;;;;4951520;28;20548;-67
2020/12/18 09:20:40;;;;;;;18.50;16.50;;;10.50;99.90;;;;;;4954012;28;20440;-67
2020/12/18 09:23:08;;;;;;;14.10;12.70;;;10.80;99.90;;;;;;4955076;28;20428;-68
2020/12/18 09:25:38;;;;;;;13.40;11.77;;;11.10;99.90;;;;;;4955192;28;20924;-68
2020/12/18 09:28:09;;;;;;;12.87;11.57;;;12.00;99.90;;;;;;4953929;28;20455;-68
2020/12/18 09:30:35;;;;;;;14.33;12.87;;;13.10;99.90;;;;;;4947337;28;20435;-68
2020/12/18 09:33:12;;;;;;;14.07;12.77;;;14.70;99.90;;;;;;4954173;28;20515;-68
2020/12/18 09:35:39;;;;;;;14.43;12.80;;;16.20;99.90;;;;;;4955257;28;20258;-68
2020/12/18 09:38:04;;;;;;;12.70;11.50;;;17.30;99.90;;;;;;4955169;28;20846;-68
2020/12/18 09:40:30;;;;;;;12.73;11.63;;;17.00;99.90;;;;;;4954751;28;20432;-68
2020/12/18 09:42:56;;;;;;;18.50;16.80;;;16.50;99.90;;;;;;4955329;28;20173;-68
2020/12/18 09:45:21;;;;;;;13.00;11.90;;;16.60;99.90;;;;;;4955599;28;20520;-69
2020/12/18 09:47:47;;;;;;;13.00;12.00;;;17.20;99.90;;;;;;4955290;28;20205;-68
2020/12/18 09:50:12;;;;;;;13.37;12.17;;;17.20;99.90;;;;;;4955034;28;20200;-68
2020/12/18 09:52:38;;;;;;;13.57;12.20;;;18.60;99.90;;;;;;4955486;28;20181;-68
2020/12/18 09:55:04;;;;;;;11.93;10.90;;;19.30;99.70;;;;;;4955113;28;20546;-68
2020/12/18 09:57:30;;;;;;;12.90;11.90;;;20.30;97.10;;;;;;4954800;28;20200;-68
2020/12/18 09:59:55;;;;;;;11.90;10.80;;;19.90;96.40;;;;;;4954941;28;20189;-68
2020/12/18 10:02:20;;;;;;;12.00;11.10;;;20.50;95.40;;;;;;4954939;28;20460;-68
2020/12/18 10:04:46;;;;;;;12.57;11.40;;;21.60;93.10;;;;;;4955068;28;20229;-69
2020/12/18 10:07:12;;;;;;;12.70;11.60;;;20.70;93.10;;;;;;4955094;28;20255;-69
2020/12/18 10:09:37;;;;;;;11.80;10.90;;;21.50;92.20;;;;;;4954774;28;20252;-68
2020/12/18 10:12:03;;;;;;;11.80;10.70;;;22.70;90.20;;;;;;4954791;28;20196;-68
2020/12/18 10:14:28;;;;;;;10.33;9.33;;;23.60;84.40;;;;;;4955186;28;20550;-66
2020/12/18 10:16:54;;;;;;;16.33;14.83;;;23.20;79.70;;;;;;4954692;28;20177;-66
2020/12/18 10:19:19;;;;;;;10.93;10.10;;;23.90;77.50;;;;;;4954507;28;20181;-66
2020/12/18 10:21:45;;;;;;;9.80;9.10;;;24.80;73.60;;;;;;4954669;28;20213;-66
2020/12/18 10:24:10;;;;;;;9.57;8.87;;;24.60;70.10;;;;;;4954326;28;20189;-66
2020/12/18 10:26:36;;;;;;;8.13;7.30;;;24.70;70.60;;;;;;4954520;28;20251;-67
2020/12/18 10:29:01;;;;;;;8.50;7.80;;;24.90;69.40;;;;;;4954078;28;20231;-66
2020/12/18 10:31:27;;;;;;;7.27;6.60;;;24.20;67.10;;;;;;4953831;28;20187;-66
2020/12/18 10:33:52;;;;;;;8.17;7.47;;;21.50;73.20;;;;;;4954638;28;20188;-66
2020/12/18 10:36:18;;;;;;;8.40;6.60;;;20.40;78.60;;;;;;4954316;28;20173;-68
2020/12/18 10:38:43;;;;;;;7.17;6.57;;;20.70;78.90;;;;;;4954097;28;20236;-68
2020/12/18 10:41:09;;;;;;;7.97;7.27;;;20.30;80.00;;;;;;4954782;28;20574;-68
2020/12/18 10:43:35;;;;;;;7.27;6.63;;;20.70;81.40;;;;;;4954542;28;20177;-68
2020/12/18 10:46:00;;;;;;;7.80;6.87;;;21.50;79.10;;;;;;4954540;28;20442;-69
2020/12/18 10:48:26;;;;;;;7.10;6.50;;;21.30;78.80;;;;;;4953957;28;20591;-68
2020/12/18 10:50:52;;;;;;;7.13;6.40;;;22.60;77.00;;;;;;4954420;28;20181;-67
2020/12/18 10:53:17;;;;;;;8.00;7.20;;;23.20;73.00;;;;;;4953730;29;20552;-66
2020/12/18 10:55:43;;;;;;;7.90;7.20;;;24.00;69.90;;;;;;4954033;28;20189;-66
2020/12/18 10:58:08;;;;;;;7.67;6.97;;;24.70;69.90;;;;;;4953583;28;20239;-69
2020/12/18 11:00:34;;;;;;;7.97;7.20;;;25.70;65.00;;;;;;4952977;28;20192;-69
2020/12/18 11:02:59;;;;;;;8.30;7.50;;;26.30;63.70;;;;;;4954175;28;20209;-69
2020/12/18 11:05:25;;;;;;;7.13;6.47;;;26.50;60.50;;;;;;4938104;29;20185;-69
2020/12/18 11:07:51;;;;;;;8.17;7.57;;;27.10;59.20;;;;;;4953646;28;20193;-68
2020/12/18 11:10:16;;;;;;;6.90;6.33;;;25.90;58.90;;;;;;4953994;28;20192;-68
2020/12/18 11:12:42;;;;;;;6.63;6.10;;;25.90;59.00;;;;;;4953681;28;20686;-68
2020/12/18 11:15:09;;;;;;;7.83;7.23;;;24.40;61.00;;;;;;4953696;28;20189;-69
2020/12/18 11:17:34;;;;;;;7.00;6.30;;;23.80;63.60;;;;;;4953750;28;20464;-68
2020/12/18 11:20:00;;;;;;;6.70;6.20;;;24.50;62.70;;;;;;4953621;28;20440;-68
2020/12/18 11:22:25;;;;;;;7.47;6.70;;;26.00;59.40;;;;;;4953706;28;20208;-68
2020/12/18 11:24:51;;;;;;;6.53;6.03;;;25.00;59.50;;;;;;4954277;28;20233;-68
2020/12/18 11:27:16;;;;;;;6.63;6.13;;;24.90;60.60;;;;;;4953458;28;20671;-68
2020/12/18 11:29:42;;;;;;;6.73;6.23;;;24.00;61.40;;;;;;4953411;28;20228;-69
2020/12/18 11:32:07;;;;;;;6.93;6.37;;;23.90;63.60;;;;;;4953871;28;20191;-68
2020/12/18 11:34:33;;;;;;;6.17;5.67;;;24.50;62.50;;;;;;4954029;28;20188;-67
2020/12/18 11:36:58;;;;;;;7.27;6.77;;;24.50;60.10;;;;;;4953275;28;20228;-68
2020/12/18 11:39:26;;;;;;;7.40;6.60;;;24.80;60.00;;;;;;4953115;28;20554;-67
2020/12/18 11:41:52;;;;;;;6.40;5.90;;;25.60;59.20;;;;;;4953569;28;20196;-69
2020/12/18 11:44:18;;;;;;;6.50;5.90;;;26.10;58.10;;;;;;4953271;28;21004;-67
2020/12/18 11:46:47;;;;;;;6.87;6.27;;;26.30;57.00;;;;;;4953164;28;20448;-69
2020/12/18 11:49:13;;;;;;;6.47;6.00;;;27.00;56.20;;;;;;4949909;29;20192;-72
2020/12/18 11:51:39;;;;;;;7.40;6.73;;;26.50;56.30;;;;;;4953375;28;20444;-67
2020/12/18 11:54:04;;;;;;;6.40;5.90;;;26.70;56.10;;;;;;4953429;28;20239;-67
2020/12/18 11:56:30;;;;;;;7.00;6.50;;;25.10;56.80;;;;;;4953176;28;20193;-67
2020/12/18 11:58:56;;;;;;;6.67;6.20;;;24.40;58.00;;;;;;4952514;28;20208;-70
2020/12/18 12:01:22;;;;;;;7.57;6.93;;;23.30;60.30;;;;;;4952796;28;20216;-69
2020/12/18 12:03:52;;;;;;;5.80;5.30;;;22.70;62.00;;;;;;4951685;28;20942;-67
2020/12/18 12:06:18;;;;;;;7.77;7.13;;;22.70;62.90;;;;;;4953158;28;20268;-70
2020/12/18 12:08:44;;;;;;;7.37;6.67;;;24.80;59.50;;;;;;4952497;28;20461;-68
2020/12/18 12:11:12;;;;;;;7.10;6.60;;;24.70;59.00;;;;;;4952849;28;20439;-68
2020/12/18 12:13:38;;;;;;;6.10;5.43;;;26.20;57.20;;;;;;4952522;28;20444;-66
2020/12/18 12:16:04;;;;;;;6.90;6.40;;;25.90;56.20;;;;;;4952813;28;20451;-69
2020/12/18 12:18:29;;;;;;;7.43;6.83;;;25.10;57.80;;;;;;4952462;28;20836;-69
2020/12/18 12:20:55;;;;;;;7.47;6.87;;;24.80;58.00;;;;;;4952642;28;20216;-69
2020/12/18 12:23:20;;;;;;;8.60;7.93;;;27.00;56.70;;;;;;4952817;28;20191;-68
2020/12/18 12:25:46;;;;;;;8.70;8.10;;;28.50;54.30;;;;;;4952478;28;20268;-67
2020/12/18 12:28:11;;;;;;;10.70;9.80;;;29.60;52.60;;;;;;4952073;28;20199;-68
2020/12/18 12:30:37;;;;;;;8.73;7.83;;;30.20;51.10;;;;;;4952698;28;20181;-67
2020/12/18 12:33:03;;;;;;;8.07;7.47;;;30.70;49.60;;;;;;4952183;28;20655;-68
2020/12/18 12:35:28;;;;;;;13.23;11.87;;;30.30;48.90;;;;;;4952421;28;20299;-67
2020/12/18 12:37:54;;;;;;;11.90;10.80;;;29.70;50.00;;;;;;4951498;28;20665;-68
2020/12/18 12:40:19;;;;;;;13.43;12.27;;;28.90;50.20;;;;;;4952206;28;20180;-68